createdAt,value
2018-12-06T00:00:16.519Z,7.60
2018-12-06T00:02:49.354Z,7.70
2018-12-06T00:05:25.297Z,7.70
2018-12-06T00:08:10.295Z,7.60
2018-12-06T00:10:42.942Z,7.60
2018-12-06T00:13:17.983Z,7.60
2018-12-06T00:15:53.212Z,7.60
2018-12-06T00:18:26.308Z,7.70
2018-12-06T00:20:59.167Z,7.60
2018-12-06T00:23:33.809Z,7.70
2018-12-06T00:26:09.027Z,7.70
2018-12-06T00:28:44.704Z,7.70
2018-12-06T00:31:19.928Z,7.70
2018-12-06T00:33:54.736Z,7.70
2018-12-06T00:36:28.175Z,7.70
2018-12-06T00:39:04.096Z,7.70
2018-12-06T00:41:38.778Z,7.70
2018-12-06T00:44:14.081Z,7.80
2018-12-06T00:46:47.112Z,7.80
2018-12-06T00:49:20.084Z,7.80
2018-12-06T00:51:54.668Z,7.80
2018-12-06T00:54:29.889Z,7.80
2018-12-06T00:57:02.942Z,7.80
2018-12-06T00:59:37.501Z,7.80
2018-12-06T01:02:12.091Z,7.80
2018-12-06T01:04:44.820Z,7.90
2018-12-06T01:07:20.766Z,7.90
2018-12-06T01:09:57.512Z,7.90
2018-12-06T01:17:32.533Z,7.90
2018-12-06T01:20:05.743Z,7.90
2018-12-06T01:22:41.745Z,7.90
2018-12-06T01:25:14.441Z,7.90
2018-12-06T01:27:49.754Z,8.00
2018-12-06T01:30:22.427Z,8.00
2018-12-06T01:32:55.228Z,8.00
2018-12-06T01:35:27.552Z,8.00
2018-12-06T01:38:00.031Z,8.00
2018-12-06T01:40:32.735Z,8.00
2018-12-06T01:43:07.952Z,8.00
2018-12-06T01:45:44.076Z,8.00
2018-12-06T01:48:17.449Z,8.00
2018-12-06T01:50:52.516Z,8.00
2018-12-06T01:53:25.740Z,8.00
2018-12-06T01:55:58.415Z,8.10
2018-12-06T01:58:31.265Z,8.10
2018-12-06T02:01:03.525Z,8.10
2018-12-06T02:03:38.706Z,8.10
2018-12-06T02:06:13.405Z,8.10
2018-12-06T02:08:46.411Z,8.10
2018-12-06T02:11:19.011Z,8.10
2018-12-06T02:13:51.561Z,8.10
2018-12-06T02:21:27.631Z,8.10
2018-12-06T02:23:59.940Z,8.10
2018-12-06T02:26:32.421Z,8.10
2018-12-06T02:29:07.758Z,8.20
2018-12-06T02:31:43.732Z,8.20
2018-12-06T02:34:20.200Z,8.20
2018-12-06T02:36:55.392Z,8.20
2018-12-06T02:39:29.996Z,8.20
2018-12-06T02:42:02.759Z,8.20
2018-12-06T02:44:37.665Z,8.20
2018-12-06T02:47:12.682Z,8.20
2018-12-06T02:49:45.537Z,8.20
2018-12-06T02:52:20.888Z,8.20
2018-12-06T02:54:55.340Z,8.30
2018-12-06T02:57:28.363Z,8.30
2018-12-06T03:00:00.546Z,8.30
2018-12-06T03:02:32.750Z,8.30
2018-12-06T03:05:05.409Z,8.30
2018-12-06T03:07:50.330Z,8.30
2018-12-06T03:10:22.962Z,8.40
2018-12-06T03:12:56.816Z,8.40
2018-12-06T03:15:29.581Z,8.40
2018-12-06T03:18:04.067Z,8.40
2018-12-06T03:20:39.222Z,8.50
2018-12-06T03:23:13.881Z,8.50
2018-12-06T03:25:48.430Z,8.50
2018-12-06T03:28:22.638Z,8.60
2018-12-06T03:30:57.181Z,8.60
2018-12-06T03:33:31.528Z,8.60
2018-12-06T03:36:05.881Z,8.70
2018-12-06T03:38:38.955Z,8.70
2018-12-06T03:41:14.274Z,8.70
2018-12-06T03:43:48.681Z,8.70
2018-12-06T03:46:20.792Z,8.70
2018-12-06T03:48:53.437Z,8.70
2018-12-06T03:51:28.004Z,8.70
2018-12-06T03:54:03.206Z,8.80
2018-12-06T03:56:36.782Z,8.70
2018-12-06T03:59:16.344Z,8.70
2018-12-06T04:01:51.531Z,8.70
2018-12-06T04:04:23.673Z,8.70
2018-12-06T04:06:58.941Z,8.70
2018-12-06T04:09:33.870Z,8.70
2018-12-06T04:12:06.595Z,8.70
2018-12-06T04:14:41.052Z,8.60
2018-12-06T04:17:13.436Z,8.60
2018-12-06T04:19:45.592Z,8.60
2018-12-06T04:22:20.173Z,8.70
2018-12-06T04:24:55.525Z,8.70
2018-12-06T04:27:28.377Z,8.70
2018-12-06T04:30:00.792Z,8.70
2018-12-06T04:32:35.177Z,8.70
2018-12-06T04:35:08.042Z,8.70
2018-12-06T04:37:42.395Z,8.70
2018-12-06T04:40:17.278Z,8.70
2018-12-06T04:42:50.125Z,8.70
2018-12-06T04:45:22.653Z,8.80
2018-12-06T04:47:55.512Z,8.80
2018-12-06T04:50:30.111Z,8.80
2018-12-06T04:53:04.477Z,8.80
2018-12-06T04:55:39.429Z,8.80
2018-12-06T04:58:12.277Z,8.80
2018-12-06T05:00:44.718Z,8.80
2018-12-06T05:03:17.280Z,8.70
2018-12-06T05:05:49.863Z,8.70
2018-12-06T05:08:24.353Z,8.70
2018-12-06T05:13:53.130Z,8.70
2018-12-06T05:16:26.197Z,8.70
2018-12-06T05:19:00.871Z,8.70
2018-12-06T05:21:35.457Z,8.70
2018-12-06T05:24:08.267Z,8.70
2018-12-06T05:26:42.802Z,8.70
2018-12-06T05:29:17.415Z,8.70
2018-12-06T05:31:52.633Z,8.70
2018-12-06T05:37:20.737Z,8.70
2018-12-06T05:39:55.675Z,8.70
2018-12-06T05:42:39.487Z,8.70
2018-12-06T05:45:11.765Z,8.70
2018-12-06T05:47:47.448Z,8.70
2018-12-06T05:53:25.298Z,8.70
2018-12-06T05:55:57.868Z,8.70
2018-12-06T05:58:31.781Z,8.70
2018-12-06T06:01:04.405Z,8.70
2018-12-06T06:03:39.474Z,8.70
2018-12-06T06:06:12.366Z,8.70
2018-12-06T06:08:50.710Z,8.70
2018-12-06T06:11:33.852Z,8.70
2018-12-06T06:14:06.477Z,8.70
2018-12-06T06:16:38.908Z,8.70
2018-12-06T06:19:11.325Z,8.80
2018-12-06T06:21:44.239Z,8.80
2018-12-06T06:24:16.803Z,8.80
2018-12-06T06:26:53.313Z,8.80
2018-12-06T06:34:34.852Z,8.80
2018-12-06T06:37:08.746Z,8.80
2018-12-06T06:39:43.385Z,8.80
2018-12-06T06:42:18.584Z,8.90
2018-12-06T06:45:02.079Z,8.90
2018-12-06T06:47:42.006Z,8.90
2018-12-06T06:50:17.359Z,8.90
2018-12-06T06:52:52.807Z,9.00
2018-12-06T06:58:25.795Z,8.90
2018-12-06T07:01:01.148Z,9.00
2018-12-06T07:03:39.927Z,9.00
2018-12-06T07:06:25.694Z,9.00
2018-12-06T07:09:01.420Z,9.00
2018-12-06T07:11:37.779Z,9.10
2018-12-06T07:14:15.591Z,9.10
2018-12-06T07:16:49.851Z,9.10
2018-12-06T07:19:29.677Z,9.10
2018-12-06T07:25:04.037Z,9.20
2018-12-06T07:27:43.330Z,9.20
2018-12-06T07:30:24.325Z,9.20
2018-12-06T07:33:02.110Z,9.30
2018-12-06T07:35:43.854Z,9.30
2018-12-06T07:38:17.326Z,9.30
2018-12-06T07:40:52.585Z,9.30
2018-12-06T07:43:37.837Z,9.30
2018-12-06T07:46:11.325Z,9.30
2018-12-06T07:48:43.115Z,9.40
2018-12-06T07:51:12.866Z,9.40
2018-12-06T07:53:43.319Z,9.40
2018-12-06T07:56:12.497Z,9.40
2018-12-06T07:58:47.169Z,9.40
2018-12-06T08:01:16.982Z,9.40
2018-12-06T08:03:47.679Z,9.40
2018-12-06T08:06:17.063Z,9.50
2018-12-06T08:08:46.802Z,9.50
2018-12-06T08:11:15.935Z,9.50
2018-12-06T08:13:46.421Z,9.50
2018-12-06T08:16:16.241Z,9.50
2018-12-06T08:18:45.509Z,9.60
2018-12-06T08:21:14.869Z,9.60
2018-12-06T08:23:44.799Z,9.60
2018-12-06T08:26:13.943Z,9.60
2018-12-06T08:28:44.828Z,9.60
2018-12-06T08:31:15.293Z,9.70
2018-12-06T08:33:44.510Z,9.70
2018-12-06T08:36:15.071Z,9.70
2018-12-06T08:38:49.645Z,9.70
2018-12-06T08:41:18.805Z,9.70
2018-12-06T08:43:48.255Z,9.70
2018-12-06T08:46:26.441Z,9.70
2018-12-06T08:49:02.834Z,9.70
2018-12-06T08:51:27.315Z,9.70
2018-12-06T08:53:56.770Z,9.70
2018-12-06T08:56:25.945Z,9.70
2018-12-06T08:58:55.432Z,9.70
2018-12-06T09:01:24.709Z,9.70
2018-12-06T09:03:55.077Z,9.80
2018-12-06T09:06:25.756Z,9.80
2018-12-06T09:08:56.761Z,9.80
2018-12-06T09:11:27.299Z,9.90
2018-12-06T09:14:09.513Z,9.90
2018-12-06T09:16:43.215Z,10.00
2018-12-06T09:19:12.405Z,10.00
2018-12-06T09:21:42.899Z,10.10
2018-12-06T09:24:12.104Z,10.10
2018-12-06T09:26:41.794Z,10.20
2018-12-06T09:29:11.605Z,10.10
2018-12-06T09:31:41.019Z,10.20
2018-12-06T09:34:10.158Z,10.20
2018-12-06T09:36:42.424Z,10.20
2018-12-06T09:39:13.223Z,10.10
2018-12-06T09:41:48.410Z,10.10
2018-12-06T09:44:19.341Z,10.10
2018-12-06T09:46:51.275Z,10.10
2018-12-06T09:49:26.649Z,10.10
2018-12-06T09:51:56.669Z,10.20
2018-12-06T09:54:26.087Z,10.20
2018-12-06T09:57:02.151Z,10.20
2018-12-06T09:59:33.388Z,10.20
2018-12-06T10:02:02.832Z,10.20
2018-12-06T10:04:34.173Z,10.30
2018-12-06T10:07:04.726Z,10.30
2018-12-06T10:09:34.244Z,10.30
2018-12-06T10:12:03.433Z,10.30
2018-12-06T10:14:33.580Z,10.30
2018-12-06T10:17:03.694Z,10.40
2018-12-06T10:19:32.791Z,10.40
2018-12-06T10:22:02.829Z,10.50
2018-12-06T10:24:34.841Z,10.50
2018-12-06T10:27:04.870Z,10.50
2018-12-06T10:29:34.779Z,10.50
2018-12-06T10:32:04.420Z,10.50
2018-12-06T10:34:33.573Z,10.50
2018-12-06T10:37:10.235Z,10.60
2018-12-06T10:39:39.840Z,10.60
2018-12-06T10:42:10.691Z,10.60
2018-12-06T10:44:49.598Z,10.60
2018-12-06T10:47:21.340Z,10.70
2018-12-06T10:50:00.216Z,10.70
2018-12-06T10:52:46.370Z,10.70
2018-12-06T10:55:25.930Z,10.80
2018-12-06T10:57:55.050Z,10.80
2018-12-06T11:00:29.676Z,10.80
2018-12-06T11:03:22.688Z,10.80
2018-12-06T11:05:53.760Z,10.80
2018-12-06T11:08:24.140Z,10.90
2018-12-06T11:10:55.970Z,10.90
2018-12-06T11:13:25.661Z,10.90
2018-12-06T11:15:58.603Z,10.90
2018-12-06T11:18:28.794Z,10.90
2018-12-06T11:21:00.630Z,11.00
2018-12-06T11:23:29.845Z,10.90
2018-12-06T11:26:00.466Z,11.00
2018-12-06T11:28:31.463Z,11.00
2018-12-06T11:31:03.309Z,11.00
2018-12-06T11:33:32.736Z,11.00
2018-12-06T11:36:03.564Z,11.00
2018-12-06T11:38:33.242Z,11.00
2018-12-06T11:41:04.151Z,11.00
2018-12-06T11:43:34.828Z,11.00
2018-12-06T11:46:03.980Z,11.10
2018-12-06T11:48:34.848Z,11.10
2018-12-06T11:51:14.870Z,11.10
2018-12-06T11:53:46.058Z,11.10
2018-12-06T11:56:16.309Z,11.10
2018-12-06T11:58:47.402Z,11.10
2018-12-06T12:01:18.362Z,11.10
2018-12-06T12:03:54.360Z,11.20
2018-12-06T12:06:23.580Z,11.20
2018-12-06T12:08:53.420Z,11.20
2018-12-06T12:11:25.340Z,11.30
2018-12-06T12:13:54.748Z,11.30
2018-12-06T12:16:30.276Z,11.30
2018-12-06T12:19:02.290Z,11.20
2018-12-06T12:24:29.611Z,11.20
2018-12-06T12:27:00.200Z,11.30
2018-12-06T12:29:31.307Z,11.20
2018-12-06T12:32:09.944Z,11.20
2018-12-06T12:34:44.394Z,11.20
2018-12-06T12:37:27.300Z,11.20
2018-12-06T12:40:07.703Z,11.30
2018-12-06T12:42:45.858Z,11.20
2018-12-06T12:45:22.782Z,11.30
2018-12-06T12:47:54.147Z,11.30
2018-12-06T12:50:32.295Z,11.30
2018-12-06T12:53:23.060Z,11.30
2018-12-06T12:56:08.975Z,11.30
2018-12-06T12:58:46.895Z,11.40
2018-12-06T13:01:28.378Z,11.40
2018-12-06T13:03:59.481Z,11.40
2018-12-06T13:06:33.627Z,11.40
2018-12-06T13:09:06.803Z,11.40
2018-12-06T13:11:38.147Z,11.30
2018-12-06T13:14:09.165Z,11.30
2018-12-06T13:16:48.315Z,11.30
2018-12-06T13:19:23.254Z,11.30
2018-12-06T13:21:55.670Z,11.30
2018-12-06T13:24:26.058Z,11.30
2018-12-06T13:27:14.347Z,11.30
2018-12-06T13:32:45.630Z,11.30
2018-12-06T13:35:15.820Z,11.30
2018-12-06T13:37:49.823Z,11.30
2018-12-06T13:40:22.501Z,11.30
2018-12-06T13:42:56.124Z,11.30
2018-12-06T13:45:31.739Z,11.30
2018-12-06T13:48:23.313Z,11.70
2018-12-06T13:50:55.754Z,11.30
2018-12-06T13:53:31.473Z,11.30
2018-12-06T13:56:04.810Z,11.30
2018-12-06T13:58:36.698Z,11.30
2018-12-06T14:01:12.435Z,11.30
2018-12-06T14:03:48.744Z,11.30
2018-12-06T14:06:19.328Z,11.30
2018-12-06T14:11:52.055Z,11.30
2018-12-06T14:14:37.339Z,11.30
2018-12-06T14:17:18.453Z,11.30
2018-12-06T14:19:53.251Z,11.30
2018-12-06T14:22:23.185Z,11.30
2018-12-06T14:24:56.801Z,11.30
2018-12-06T14:27:26.691Z,11.30
2018-12-06T14:29:57.104Z,11.30
2018-12-06T14:32:29.162Z,11.20
2018-12-06T14:35:04.775Z,11.30
2018-12-06T14:37:37.792Z,11.20
2018-12-06T14:43:15.203Z,11.20
2018-12-06T14:45:49.284Z,11.20
2018-12-06T14:48:33.017Z,11.20
2018-12-06T14:51:08.479Z,11.20
2018-12-06T14:53:44.179Z,11.20
2018-12-06T14:56:19.061Z,11.20
2018-12-06T14:58:55.544Z,11.20
2018-12-06T15:04:59.953Z,11.20
2018-12-06T15:07:36.970Z,11.20
2018-12-06T15:10:10.504Z,11.20
2018-12-06T15:13:03.655Z,11.20
2018-12-06T15:25:02.939Z,11.20
2018-12-06T15:43:04.893Z,11.20
2018-12-06T15:45:38.606Z,11.20
2018-12-06T16:06:47.063Z,11.30
2018-12-06T16:15:33.881Z,11.30
2018-12-06T16:21:15.487Z,11.30
2018-12-06T16:23:57.088Z,11.30
2018-12-06T16:47:54.154Z,11.30
2018-12-06T16:50:42.243Z,11.30
2018-12-06T16:53:14.280Z,11.30
2018-12-06T16:55:48.290Z,11.30
2018-12-06T16:58:41.074Z,11.30
2018-12-06T17:01:14.283Z,11.30
2018-12-06T17:04:02.018Z,11.30
2018-12-06T17:12:11.815Z,11.30
2018-12-06T17:14:48.096Z,11.30
2018-12-06T17:17:24.069Z,11.40
2018-12-06T17:20:08.956Z,11.40
2018-12-06T17:22:46.500Z,11.40
2018-12-06T17:25:24.141Z,11.30
2018-12-06T17:28:08.491Z,11.30
2018-12-06T17:39:54.393Z,11.30
2018-12-06T17:45:45.471Z,11.30
2018-12-06T17:48:37.816Z,11.40
2018-12-06T18:15:52.437Z,11.40
2018-12-06T18:18:51.089Z,11.40
2018-12-06T18:45:39.757Z,11.50
2018-12-06T18:48:21.647Z,11.50
2018-12-06T19:02:51.954Z,11.50
2018-12-06T19:08:24.380Z,11.50
2018-12-06T19:11:00.864Z,11.50
2018-12-06T19:19:58.232Z,11.50
2018-12-06T19:22:48.966Z,11.50
2018-12-06T19:25:30.558Z,11.50
2018-12-06T19:28:20.529Z,11.50
2018-12-06T19:30:58.332Z,11.50
2018-12-06T19:33:36.578Z,11.50
2018-12-06T19:36:27.758Z,11.50
2018-12-06T19:42:11.908Z,11.50
2018-12-06T19:44:58.660Z,11.60
2018-12-06T19:47:39.986Z,11.60
2018-12-06T19:53:28.003Z,11.60
2018-12-06T19:56:03.863Z,11.60
2018-12-06T19:58:51.178Z,11.60
2018-12-06T20:01:35.629Z,11.60
2018-12-06T20:07:15.066Z,11.70
2018-12-06T20:12:53.698Z,11.70
2018-12-06T20:15:33.324Z,11.70
2018-12-06T20:18:08.695Z,11.80
2018-12-06T20:20:44.033Z,11.80
2018-12-06T20:23:19.250Z,11.80
2018-12-06T20:25:55.010Z,11.80
2018-12-06T20:28:30.360Z,11.80
2018-12-06T20:31:07.250Z,11.80
2018-12-06T20:33:42.436Z,11.80
2018-12-06T20:36:27.457Z,11.80
2018-12-06T20:39:01.532Z,11.80
2018-12-06T20:41:38.535Z,11.90
2018-12-06T20:44:12.494Z,11.80
2018-12-06T20:46:49.377Z,11.90
2018-12-06T20:49:26.332Z,11.90
2018-12-06T20:52:04.133Z,11.90
2018-12-06T20:54:51.396Z,11.90
2018-12-06T21:00:25.199Z,12.00
2018-12-06T21:03:09.777Z,12.00
2018-12-06T21:05:50.463Z,12.00
2018-12-06T21:08:26.537Z,12.00
2018-12-06T21:11:02.749Z,12.00
2018-12-06T21:13:44.455Z,12.00
2018-12-06T21:16:20.139Z,12.00
2018-12-06T21:19:10.127Z,12.00
2018-12-06T21:21:50.644Z,12.00
2018-12-06T21:24:26.248Z,12.00
2018-12-06T21:27:09.820Z,12.00
2018-12-06T21:29:44.183Z,12.10
2018-12-06T21:35:00.695Z,12.10
2018-12-06T21:37:36.839Z,12.10
2018-12-06T21:40:23.958Z,12.10
2018-12-06T21:42:58.919Z,12.10
2018-12-06T21:45:40.808Z,12.10
2018-12-06T21:48:30.737Z,12.10
2018-12-06T21:51:05.518Z,12.10
2018-12-06T21:53:41.154Z,12.10
2018-12-06T21:56:16.279Z,12.10
2018-12-06T21:59:00.601Z,12.10
2018-12-06T22:01:36.296Z,12.10
2018-12-06T22:04:19.253Z,12.40
2018-12-06T22:06:58.495Z,12.00
2018-12-06T22:09:32.642Z,12.00
2018-12-06T22:15:00.191Z,11.90
2018-12-06T22:20:33.687Z,11.80
2018-12-06T22:23:16.804Z,11.80
2018-12-06T22:25:56.989Z,11.80
2018-12-06T22:28:35.164Z,11.70
2018-12-06T22:31:09.625Z,11.70
2018-12-06T22:33:43.913Z,11.70
2018-12-06T22:36:21.692Z,11.60
2018-12-06T22:38:56.722Z,11.60
2018-12-06T22:41:31.942Z,11.60
2018-12-06T22:44:05.578Z,11.60
2018-12-06T22:46:40.924Z,11.60
2018-12-06T22:49:18.993Z,11.60
2018-12-06T22:51:54.232Z,11.60
2018-12-06T22:54:27.645Z,11.60
2018-12-06T22:59:45.833Z,11.60
2018-12-06T23:35:39.280Z,11.70
2018-12-06T23:59:32.389Z,11.60
